Accueil
METAR-TAF:

METAR-TAF

Aéroports :

Saint-Moritz, Suisse

Aérodrome de Samedan-Engadin

latitude: 46-32-03N, longitude: 9-53-03E, altitude: 1707 m

Observation

Le bulletin a été fait il y a 19 minutes, à 15:20 UTC
Vent 7 kt de ouest/sud-ouest
Température 15°C
Humidité 31%
Pression 1024 hPa
Visibilité 10 km ou plus
pas de nuages en-dessous de 1500 mètres et pas de cumulonimbus.

METAR: LSZS 211520Z 25007KT CAVOK 15/M02 Q1024 RMK T

Heure: 17:39 (15:39 UTC)

Prévision

Le bulletin a été fait il y a 1 heure et 14 minutes, à 14:25 UTC
Prévision valable du 21 à 15 UTC au 21 à 24 UTC
Vent 4 kt de ouest
Visibilité 10 km ou plus
pas de nuages en-dessous de 1500 mètres et pas de cumulonimbus.

TAF: LSZS 211425Z 2115/2124 28004KT CAVOK TX18/2115Z

Observations et prévisions météorologiques de plus de 4000 aéroports (messages METAR et TAF).

Les stations disponibles sont représentées par des disques jaunes et rouges sur la carte.

Passer la souris dessus pour voir le nom de la station.

Cliquer dessus pour voir les observations et prévisions météorologiques.

Pour changer de carte: cliquez sur les boutons verts avec une croix noire pour zoomer, sur le bouton vert avec un tiret pour effectuer un zoom arrière, ou sur les flèches vertes pour les cartes adjacentes.


METAR-TAF: